Lihue, HI (96766)

3:25 AM HST on June 28, 2017 (GMT -1000)
Uluko | | Change Station

Elev 187 ft 21.96 °N, 159.37 °W | Updated 9 seconds ago

Scattered Clouds
Scattered Clouds
76.8 °F
Feels Like 78 °F
N
2.0
Wind Variable Wind from NW
Gusts 8.0 mph

Today
High -- | Low -- °F
--% Chance of Precip.
Yesterday
High -- | Low -- °F
Precip. -- in
Pressure 30.09 in
Visibility 10.0 miles
Clouds Few 2100 ft
Scattered Clouds 5000 ft
Heat Index 78 °F
Dew Point 70 °F
Humidity 81%
Rainfall 0.00 in
Snow Depth Not available.
5:56 AM 7:24 PM
Waxing Crescent, 25% visible
METAR PHLI 281253Z AUTO 06015KT 10SM FEW021 SCT050 26/21 A3010 RMK AO2 RAE1155 SLP190 P0000 T02560206 TSNO $
Pressure 30.09 in
Visibility 10.0 miles
Clouds Few 2100 ft
Scattered Clouds 5000 ft
Heat Index 78 °F
Dew Point 70 °F
Humidity 81%
Rainfall 0.00 in
Snow Depth Not available.
5:56 AM 7:24 PM
Waxing Crescent, 25% visible
METAR PHLI 281253Z AUTO 06015KT 10SM FEW021 SCT050 26/21 A3010 RMK AO2 RAE1155 SLP190 P0000 T02560206 TSNO $

Get Severe Weather Alerts

Thanks for signing up!

Be on the lookout for a verification email in your inbox.

You'll start receiving the daily forecast at 6 AM.

×

10-Day Weather Forecast

Almanac

Astronomy

Jun. 28, 2017 Rise Set
Actual Time
Civil Twilight
Nautical Twilight
Astronomical Twilight
Moon
Length of Visible Light
Length of Day
Tomorrow will be .
, % of the Moon is Illuminated

Today's Extremes

State Highs State Lows

Community

WunderPhotos

Category 6

Welcome to Category 6. This is the collective home for Weather Underground's featured writeups by Dr. Jeff Masters (right), Bob Henson (left), Chris Burt, and other regular contributors.

Nearby

Air Quality

  Air Quality AQ Index Pollutant
Not available.

Snow Depth

Station Depth Elevation

Earthquake Activity

City Distance Mag. Time & Date
Minimum magnitude displayed is 2.5.

Coastal Water Temperatures

Place Temperature

Stations

Nearby Weather Stations

Station Location Temp. Windchill Dew Point Humidity Wind Precip. Elev Updated Type
                   

Watches & Warnings

There are currently no watches in effect.